sensor_id;sensor_type;location;lat;lon;timestamp;P1;durP1;ratioP1;P2;durP2;ratioP2
36745;SDS011;22715;52.182;21.206;2023-02-10T00:00:14;21.48;;;11.88;;
36745;SDS011;22715;52.182;21.206;2023-02-10T00:02:39;24.90;;;13.00;;
36745;SDS011;22715;52.182;21.206;2023-02-10T00:05:05;21.73;;;12.23;;
36745;SDS011;22715;52.182;21.206;2023-02-10T00:07:37;25.20;;;12.52;;
36745;SDS011;22715;52.182;21.206;2023-02-10T00:10:03;24.15;;;11.90;;
36745;SDS011;22715;52.182;21.206;2023-02-10T00:12:28;21.58;;;11.43;;
36745;SDS011;22715;52.182;21.206;2023-02-10T00:14:54;23.05;;;12.27;;
36745;SDS011;22715;52.182;21.206;2023-02-10T00:17:19;22.98;;;12.90;;
36745;SDS011;22715;52.182;21.206;2023-02-10T00:19:44;23.15;;;13.35;;
36745;SDS011;22715;52.182;21.206;2023-02-10T00:22:10;26.10;;;12.88;;
36745;SDS011;22715;52.182;21.206;2023-02-10T00:24:35;24.52;;;12.88;;
36745;SDS011;22715;52.182;21.206;2023-02-10T00:27:00;23.85;;;12.50;;
36745;SDS011;22715;52.182;21.206;2023-02-10T00:29:26;17.83;;;11.45;;
36745;SDS011;22715;52.182;21.206;2023-02-10T00:31:51;24.80;;;13.00;;
36745;SDS011;22715;52.182;21.206;2023-02-10T00:34:17;27.15;;;12.43;;
36745;SDS011;22715;52.182;21.206;2023-02-10T00:36:43;19.42;;;11.48;;
36745;SDS011;22715;52.182;21.206;2023-02-10T00:39:14;23.10;;;11.32;;
36745;SDS011;22715;52.182;21.206;2023-02-10T00:41:40;20.20;;;11.60;;
36745;SDS011;22715;52.182;21.206;2023-02-10T00:44:06;22.67;;;13.45;;
36745;SDS011;22715;52.182;21.206;2023-02-10T00:46:31;22.83;;;15.02;;
36745;SDS011;22715;52.182;21.206;2023-02-10T00:48:56;23.85;;;12.82;;
36745;SDS011;22715;52.182;21.206;2023-02-10T00:51:22;26.90;;;13.55;;
36745;SDS011;22715;52.182;21.206;2023-02-10T00:53:47;24.02;;;12.68;;
36745;SDS011;22715;52.182;21.206;2023-02-10T00:56:16;23.20;;;14.85;;
36745;SDS011;22715;52.182;21.206;2023-02-10T00:58:42;29.52;;;12.57;;
36745;SDS011;22715;52.182;21.206;2023-02-10T01:01:07;24.55;;;11.65;;
36745;SDS011;22715;52.182;21.206;2023-02-10T01:03:33;27.77;;;13.63;;
36745;SDS011;22715;52.182;21.206;2023-02-10T01:05:58;25.33;;;12.43;;
36745;SDS011;22715;52.182;21.206;2023-02-10T01:08:23;22.58;;;11.93;;
36745;SDS011;22715;52.182;21.206;2023-02-10T01:10:48;23.05;;;10.63;;
36745;SDS011;22715;52.182;21.206;2023-02-10T01:13:14;27.60;;;12.75;;
36745;SDS011;22715;52.182;21.206;2023-02-10T01:15:43;23.15;;;11.73;;
36745;SDS011;22715;52.182;21.206;2023-02-10T01:18:09;22.73;;;12.18;;
36745;SDS011;22715;52.182;21.206;2023-02-10T01:20:37;24.35;;;14.27;;
36745;SDS011;22715;52.182;21.206;2023-02-10T01:23:02;23.85;;;12.57;;
36745;SDS011;22715;52.182;21.206;2023-02-10T01:25:27;23.00;;;12.98;;
36745;SDS011;22715;52.182;21.206;2023-02-10T01:27:53;24.63;;;12.93;;
36745;SDS011;22715;52.182;21.206;2023-02-10T01:30:18;20.52;;;11.27;;
36745;SDS011;22715;52.182;21.206;2023-02-10T01:32:43;25.25;;;12.93;;
36745;SDS011;22715;52.182;21.206;2023-02-10T01:35:09;24.55;;;12.40;;
36745;SDS011;22715;52.182;21.206;2023-02-10T01:37:34;17.63;;;11.90;;
36745;SDS011;22715;52.182;21.206;2023-02-10T01:40:01;22.40;;;11.45;;
36745;SDS011;22715;52.182;21.206;2023-02-10T01:42:27;25.02;;;12.32;;
36745;SDS011;22715;52.182;21.206;2023-02-10T01:45:06;21.83;;;10.77;;
36745;SDS011;22715;52.182;21.206;2023-02-10T01:47:36;29.75;;;12.55;;
36745;SDS011;22715;52.182;21.206;2023-02-10T01:50:02;20.50;;;12.10;;
36745;SDS011;22715;52.182;21.206;2023-02-10T01:52:28;24.58;;;12.85;;
36745;SDS011;22715;52.182;21.206;2023-02-10T01:54:57;23.55;;;11.68;;
36745;SDS011;22715;52.182;21.206;2023-02-10T01:57:24;22.80;;;11.60;;
36745;SDS011;22715;52.182;21.206;2023-02-10T01:59:50;24.00;;;12.98;;
36745;SDS011;22715;52.182;21.206;2023-02-10T02:02:15;18.50;;;11.45;;
36745;SDS011;22715;52.182;21.206;2023-02-10T02:04:44;19.77;;;10.68;;
36745;SDS011;22715;52.182;21.206;2023-02-10T02:07:10;21.73;;;12.40;;
36745;SDS011;22715;52.182;21.206;2023-02-10T02:09:35;23.52;;;11.00;;
36745;SDS011;22715;52.182;21.206;2023-02-10T02:12:06;22.83;;;10.75;;
36745;SDS011;22715;52.182;21.206;2023-02-10T02:14:36;26.25;;;10.50;;
36745;SDS011;22715;52.182;21.206;2023-02-10T02:27:26;21.05;;;9.65;;
36745;SDS011;22715;52.182;21.206;2023-02-10T02:32:34;19.42;;;11.55;;
36745;SDS011;22715;52.182;21.206;2023-02-10T02:35:04;18.80;;;8.63;;
36745;SDS011;22715;52.182;21.206;2023-02-10T02:40:33;24.25;;;11.63;;
36745;SDS011;22715;52.182;21.206;2023-02-10T02:42:59;30.30;;;14.57;;
36745;SDS011;22715;52.182;21.206;2023-02-10T02:45:31;22.02;;;12.45;;
36745;SDS011;22715;52.182;21.206;2023-02-10T03:01:54;22.77;;;10.23;;
36745;SDS011;22715;52.182;21.206;2023-02-10T03:04:20;23.85;;;12.40;;
36745;SDS011;22715;52.182;21.206;2023-02-10T03:06:46;18.40;;;9.82;;
36745;SDS011;22715;52.182;21.206;2023-02-10T03:09:14;22.77;;;12.30;;
36745;SDS011;22715;52.182;21.206;2023-02-10T03:11:39;22.42;;;12.15;;
36745;SDS011;22715;52.182;21.206;2023-02-10T03:14:05;18.10;;;11.18;;
36745;SDS011;22715;52.182;21.206;2023-02-10T03:16:30;20.73;;;10.63;;
36745;SDS011;22715;52.182;21.206;2023-02-10T03:18:55;20.35;;;11.10;;
36745;SDS011;22715;52.182;21.206;2023-02-10T03:21:21;23.50;;;11.05;;
36745;SDS011;22715;52.182;21.206;2023-02-10T03:23:46;23.33;;;12.48;;
36745;SDS011;22715;52.182;21.206;2023-02-10T03:26:11;22.90;;;10.85;;
36745;SDS011;22715;52.182;21.206;2023-02-10T03:28:37;17.67;;;9.18;;
36745;SDS011;22715;52.182;21.206;2023-02-10T03:31:03;23.83;;;11.77;;
36745;SDS011;22715;52.182;21.206;2023-02-10T03:33:29;20.40;;;11.70;;
36745;SDS011;22715;52.182;21.206;2023-02-10T03:35:54;20.33;;;12.57;;
36745;SDS011;22715;52.182;21.206;2023-02-10T03:38:19;22.45;;;10.48;;
36745;SDS011;22715;52.182;21.206;2023-02-10T03:40:48;26.15;;;11.35;;
36745;SDS011;22715;52.182;21.206;2023-02-10T03:43:13;19.33;;;11.38;;
36745;SDS011;22715;52.182;21.206;2023-02-10T03:45:38;22.35;;;11.85;;
36745;SDS011;22715;52.182;21.206;2023-02-10T03:48:04;17.85;;;10.55;;
36745;SDS011;22715;52.182;21.206;2023-02-10T03:50:29;18.13;;;9.98;;
36745;SDS011;22715;52.182;21.206;2023-02-10T03:52:54;22.10;;;10.23;;
36745;SDS011;22715;52.182;21.206;2023-02-10T03:55:20;18.85;;;10.98;;
36745;SDS011;22715;52.182;21.206;2023-02-10T03:57:45;21.90;;;10.02;;
36745;SDS011;22715;52.182;21.206;2023-02-10T04:00:11;20.48;;;9.98;;
36745;SDS011;22715;52.182;21.206;2023-02-10T04:02:37;17.30;;;10.48;;
36745;SDS011;22715;52.182;21.206;2023-02-10T04:05:02;20.23;;;10.00;;
36745;SDS011;22715;52.182;21.206;2023-02-10T04:07:27;22.25;;;10.70;;
36745;SDS011;22715;52.182;21.206;2023-02-10T04:09:53;13.45;;;10.60;;
36745;SDS011;22715;52.182;21.206;2023-02-10T04:12:18;25.38;;;12.13;;
36745;SDS011;22715;52.182;21.206;2023-02-10T04:14:43;19.63;;;9.80;;
36745;SDS011;22715;52.182;21.206;2023-02-10T04:17:09;21.55;;;10.48;;
36745;SDS011;22715;52.182;21.206;2023-02-10T04:19:34;21.10;;;10.57;;
36745;SDS011;22715;52.182;21.206;2023-02-10T04:21:59;21.08;;;12.50;;
36745;SDS011;22715;52.182;21.206;2023-02-10T04:24:25;19.40;;;9.82;;
36745;SDS011;22715;52.182;21.206;2023-02-10T04:26:50;16.35;;;10.98;;
36745;SDS011;22715;52.182;21.206;2023-02-10T04:29:15;21.88;;;11.45;;
36745;SDS011;22715;52.182;21.206;2023-02-10T04:31:41;15.93;;;10.32;;
36745;SDS011;22715;52.182;21.206;2023-02-10T04:34:06;20.77;;;9.82;;
36745;SDS011;22715;52.182;21.206;2023-02-10T04:36:31;24.17;;;11.15;;
36745;SDS011;22715;52.182;21.206;2023-02-10T04:38:56;23.35;;;11.43;;
36745;SDS011;22715;52.182;21.206;2023-02-10T04:41:25;19.23;;;11.35;;
36745;SDS011;22715;52.182;21.206;2023-02-10T04:43:50;20.45;;;10.77;;
36745;SDS011;22715;52.182;21.206;2023-02-10T04:46:15;17.25;;;9.80;;
36745;SDS011;22715;52.182;21.206;2023-02-10T04:48:41;20.60;;;11.38;;
36745;SDS011;22715;52.182;21.206;2023-02-10T04:51:10;17.38;;;10.27;;
36745;SDS011;22715;52.182;21.206;2023-02-10T04:53:36;15.10;;;8.75;;
36745;SDS011;22715;52.182;21.206;2023-02-10T04:56:02;15.15;;;8.88;;
36745;SDS011;22715;52.182;21.206;2023-02-10T04:58:29;13.90;;;8.98;;
36745;SDS011;22715;52.182;21.206;2023-02-10T05:00:54;18.33;;;9.98;;
36745;SDS011;22715;52.182;21.206;2023-02-10T05:03:20;21.75;;;10.07;;
36745;SDS011;22715;52.182;21.206;2023-02-10T05:05:45;16.60;;;11.90;;
36745;SDS011;22715;52.182;21.206;2023-02-10T05:08:10;17.45;;;8.75;;
36745;SDS011;22715;52.182;21.206;2023-02-10T05:10:36;15.48;;;9.50;;
36745;SDS011;22715;52.182;21.206;2023-02-10T05:13:01;22.35;;;11.63;;
36745;SDS011;22715;52.182;21.206;2023-02-10T05:15:26;14.55;;;8.73;;
36745;SDS011;22715;52.182;21.206;2023-02-10T05:17:55;19.02;;;10.98;;
36745;SDS011;22715;52.182;21.206;2023-02-10T05:20:20;20.40;;;9.98;;
36745;SDS011;22715;52.182;21.206;2023-02-10T05:22:45;22.10;;;12.23;;
36745;SDS011;22715;52.182;21.206;2023-02-10T05:25:11;20.23;;;11.27;;
36745;SDS011;22715;52.182;21.206;2023-02-10T05:27:36;15.55;;;10.55;;
36745;SDS011;22715;52.182;21.206;2023-02-10T05:30:02;18.38;;;11.18;;
36745;SDS011;22715;52.182;21.206;2023-02-10T05:32:27;20.95;;;11.05;;
36745;SDS011;22715;52.182;21.206;2023-02-10T05:34:52;20.05;;;10.05;;
36745;SDS011;22715;52.182;21.206;2023-02-10T05:37:18;18.35;;;9.55;;
36745;SDS011;22715;52.182;21.206;2023-02-10T05:39:43;20.75;;;10.27;;
36745;SDS011;22715;52.182;21.206;2023-02-10T05:42:08;17.55;;;9.35;;
36745;SDS011;22715;52.182;21.206;2023-02-10T05:44:34;23.15;;;9.35;;
36745;SDS011;22715;52.182;21.206;2023-02-10T05:47:06;16.25;;;9.13;;
36745;SDS011;22715;52.182;21.206;2023-02-10T05:49:32;17.83;;;9.75;;
36745;SDS011;22715;52.182;21.206;2023-02-10T05:51:57;21.27;;;10.63;;
36745;SDS011;22715;52.182;21.206;2023-02-10T05:54:22;18.85;;;9.15;;
36745;SDS011;22715;52.182;21.206;2023-02-10T05:56:48;16.98;;;10.32;;
36745;SDS011;22715;52.182;21.206;2023-02-10T05:59:15;22.30;;;12.15;;
36745;SDS011;22715;52.182;21.206;2023-02-10T06:01:43;15.25;;;9.55;;
36745;SDS011;22715;52.182;21.206;2023-02-10T06:04:08;18.90;;;11.02;;
36745;SDS011;22715;52.182;21.206;2023-02-10T06:06:33;16.83;;;9.52;;
36745;SDS011;22715;52.182;21.206;2023-02-10T06:08:59;20.52;;;11.68;;
36745;SDS011;22715;52.182;21.206;2023-02-10T06:11:24;23.60;;;12.18;;
36745;SDS011;22715;52.182;21.206;2023-02-10T06:13:49;21.13;;;11.13;;
36745;SDS011;22715;52.182;21.206;2023-02-10T06:16:15;21.48;;;9.77;;
36745;SDS011;22715;52.182;21.206;2023-02-10T06:18:40;23.13;;;11.65;;
36745;SDS011;22715;52.182;21.206;2023-02-10T06:21:07;19.23;;;10.18;;
36745;SDS011;22715;52.182;21.206;2023-02-10T06:23:32;19.65;;;10.50;;
36745;SDS011;22715;52.182;21.206;2023-02-10T06:25:57;21.30;;;10.32;;
36745;SDS011;22715;52.182;21.206;2023-02-10T06:28:25;23.08;;;12.15;;
36745;SDS011;22715;52.182;21.206;2023-02-10T06:30:56;21.42;;;12.00;;
36745;SDS011;22715;52.182;21.206;2023-02-10T06:33:22;22.02;;;10.02;;
36745;SDS011;22715;52.182;21.206;2023-02-10T06:35:48;19.73;;;10.80;;
36745;SDS011;22715;52.182;21.206;2023-02-10T06:38:14;23.52;;;12.30;;
36745;SDS011;22715;52.182;21.206;2023-02-10T06:40:42;20.40;;;11.57;;
36745;SDS011;22715;52.182;21.206;2023-02-10T06:43:07;22.23;;;12.43;;
36745;SDS011;22715;52.182;21.206;2023-02-10T06:45:33;17.20;;;10.70;;
36745;SDS011;22715;52.182;21.206;2023-02-10T06:47:59;24.85;;;11.50;;
36745;SDS011;22715;52.182;21.206;2023-02-10T06:50:28;23.17;;;13.32;;
36745;SDS011;22715;52.182;21.206;2023-02-10T06:52:53;18.23;;;10.90;;
36745;SDS011;22715;52.182;21.206;2023-02-10T06:55:18;21.25;;;12.38;;
36745;SDS011;22715;52.182;21.206;2023-02-10T06:57:44;21.35;;;11.35;;
36745;SDS011;22715;52.182;21.206;2023-02-10T07:00:10;21.08;;;10.32;;
36745;SDS011;22715;52.182;21.206;2023-02-10T07:02:37;23.13;;;12.65;;
36745;SDS011;22715;52.182;21.206;2023-02-10T07:05:05;23.05;;;11.45;;
36745;SDS011;22715;52.182;21.206;2023-02-10T07:07:32;25.50;;;12.00;;
36745;SDS011;22715;52.182;21.206;2023-02-10T07:09:57;21.70;;;12.02;;
36745;SDS011;22715;52.182;21.206;2023-02-10T07:12:23;22.42;;;12.60;;
36745;SDS011;22715;52.182;21.206;2023-02-10T07:14:50;17.75;;;11.32;;
36745;SDS011;22715;52.182;21.206;2023-02-10T07:17:15;23.45;;;13.27;;
36745;SDS011;22715;52.182;21.206;2023-02-10T07:19:40;22.88;;;12.40;;
36745;SDS011;22715;52.182;21.206;2023-02-10T07:22:06;19.30;;;11.52;;
36745;SDS011;22715;52.182;21.206;2023-02-10T07:24:32;20.40;;;10.85;;
36745;SDS011;22715;52.182;21.206;2023-02-10T07:26:57;24.50;;;12.35;;
36745;SDS011;22715;52.182;21.206;2023-02-10T07:29:23;14.98;;;10.95;;
36745;SDS011;22715;52.182;21.206;2023-02-10T07:31:48;23.80;;;13.38;;
36745;SDS011;22715;52.182;21.206;2023-02-10T07:34:13;22.77;;;13.18;;
36745;SDS011;22715;52.182;21.206;2023-02-10T07:36:39;19.40;;;11.52;;
36745;SDS011;22715;52.182;21.206;2023-02-10T07:39:04;23.08;;;12.77;;
36745;SDS011;22715;52.182;21.206;2023-02-10T07:41:29;16.50;;;11.02;;
36745;SDS011;22715;52.182;21.206;2023-02-10T07:43:55;43.92;;;15.88;;
36745;SDS011;22715;52.182;21.206;2023-02-10T07:46:23;28.10;;;13.77;;
36745;SDS011;22715;52.182;21.206;2023-02-10T07:48:48;23.95;;;13.35;;
36745;SDS011;22715;52.182;21.206;2023-02-10T07:51:16;22.67;;;13.00;;
36745;SDS011;22715;52.182;21.206;2023-02-10T07:53:42;25.63;;;13.80;;
36745;SDS011;22715;52.182;21.206;2023-02-10T07:56:07;19.77;;;11.23;;
36745;SDS011;22715;52.182;21.206;2023-02-10T07:58:33;23.50;;;13.90;;
36745;SDS011;22715;52.182;21.206;2023-02-10T08:00:58;21.75;;;13.07;;
36745;SDS011;22715;52.182;21.206;2023-02-10T08:03:25;23.27;;;13.18;;
36745;SDS011;22715;52.182;21.206;2023-02-10T08:05:51;22.52;;;12.27;;
36745;SDS011;22715;52.182;21.206;2023-02-10T08:08:16;24.02;;;12.50;;
36745;SDS011;22715;52.182;21.206;2023-02-10T08:10:42;24.02;;;13.80;;
36745;SDS011;22715;52.182;21.206;2023-02-10T08:13:07;25.52;;;14.18;;
36745;SDS011;22715;52.182;21.206;2023-02-10T08:15:33;22.95;;;12.45;;
36745;SDS011;22715;52.182;21.206;2023-02-10T08:17:59;23.17;;;12.18;;
36745;SDS011;22715;52.182;21.206;2023-02-10T08:20:24;25.65;;;15.13;;
36745;SDS011;22715;52.182;21.206;2023-02-10T08:22:57;21.90;;;11.43;;
36745;SDS011;22715;52.182;21.206;2023-02-10T08:33:07;28.25;;;14.63;;
36745;SDS011;22715;52.182;21.206;2023-02-10T08:35:34;25.45;;;12.93;;
36745;SDS011;22715;52.182;21.206;2023-02-10T08:38:00;21.77;;;12.55;;
36745;SDS011;22715;52.182;21.206;2023-02-10T08:40:25;21.13;;;11.55;;
36745;SDS011;22715;52.182;21.206;2023-02-10T08:42:58;24.55;;;12.18;;
36745;SDS011;22715;52.182;21.206;2023-02-10T08:45:24;26.38;;;13.82;;
36745;SDS011;22715;52.182;21.206;2023-02-10T08:47:49;20.08;;;10.75;;
36745;SDS011;22715;52.182;21.206;2023-02-10T08:50:22;23.92;;;13.57;;
36745;SDS011;22715;52.182;21.206;2023-02-10T08:52:54;29.00;;;14.23;;
36745;SDS011;22715;52.182;21.206;2023-02-10T08:55:20;19.73;;;12.32;;
36745;SDS011;22715;52.182;21.206;2023-02-10T08:57:45;26.52;;;13.43;;
36745;SDS011;22715;52.182;21.206;2023-02-10T09:00:11;22.80;;;16.17;;
36745;SDS011;22715;52.182;21.206;2023-02-10T09:02:36;25.02;;;15.02;;
36745;SDS011;22715;52.182;21.206;2023-02-10T09:05:03;21.75;;;13.20;;
36745;SDS011;22715;52.182;21.206;2023-02-10T09:07:29;25.10;;;12.32;;
36745;SDS011;22715;52.182;21.206;2023-02-10T09:09:55;25.70;;;12.98;;
36745;SDS011;22715;52.182;21.206;2023-02-10T09:12:32;25.58;;;13.55;;
36745;SDS011;22715;52.182;21.206;2023-02-10T09:14:58;23.20;;;13.60;;
36745;SDS011;22715;52.182;21.206;2023-02-10T09:17:23;23.02;;;12.15;;
36745;SDS011;22715;52.182;21.206;2023-02-10T09:19:59;25.80;;;12.52;;
36745;SDS011;22715;52.182;21.206;2023-02-10T09:22:24;24.50;;;13.18;;
36745;SDS011;22715;52.182;21.206;2023-02-10T09:27:25;23.40;;;13.63;;
36745;SDS011;22715;52.182;21.206;2023-02-10T09:29:51;25.02;;;13.77;;
36745;SDS011;22715;52.182;21.206;2023-02-10T09:34:53;24.75;;;12.77;;
36745;SDS011;22715;52.182;21.206;2023-02-10T09:37:18;23.48;;;11.18;;
36745;SDS011;22715;52.182;21.206;2023-02-10T09:39:44;26.08;;;13.73;;
36745;SDS011;22715;52.182;21.206;2023-02-10T09:42:14;30.58;;;13.57;;
36745;SDS011;22715;52.182;21.206;2023-02-10T09:44:45;21.83;;;12.57;;
36745;SDS011;22715;52.182;21.206;2023-02-10T09:47:20;20.05;;;11.30;;
36745;SDS011;22715;52.182;21.206;2023-02-10T09:52:41;19.27;;;11.77;;
36745;SDS011;22715;52.182;21.206;2023-02-10T09:55:30;21.60;;;13.20;;
36745;SDS011;22715;52.182;21.206;2023-02-10T09:57:57;21.00;;;13.23;;
36745;SDS011;22715;52.182;21.206;2023-02-10T10:00:27;21.95;;;12.02;;
36745;SDS011;22715;52.182;21.206;2023-02-10T10:02:54;26.30;;;14.20;;
36745;SDS011;22715;52.182;21.206;2023-02-10T10:07:55;22.63;;;13.95;;
36745;SDS011;22715;52.182;21.206;2023-02-10T10:12:49;23.77;;;13.10;;
36745;SDS011;22715;52.182;21.206;2023-02-10T10:15:17;26.50;;;14.27;;
36745;SDS011;22715;52.182;21.206;2023-02-10T10:18:02;27.20;;;14.55;;
36745;SDS011;22715;52.182;21.206;2023-02-10T10:35:47;28.00;;;13.85;;
36745;SDS011;22715;52.182;21.206;2023-02-10T10:38:13;25.27;;;15.40;;
36745;SDS011;22715;52.182;21.206;2023-02-10T10:40:39;26.35;;;13.35;;
36745;SDS011;22715;52.182;21.206;2023-02-10T10:43:08;34.90;;;16.02;;
36745;SDS011;22715;52.182;21.206;2023-02-10T10:45:41;27.80;;;14.05;;
36745;SDS011;22715;52.182;21.206;2023-02-10T10:48:09;33.63;;;14.95;;
36745;SDS011;22715;52.182;21.206;2023-02-10T10:50:36;24.02;;;13.75;;
36745;SDS011;22715;52.182;21.206;2023-02-10T10:53:03;27.00;;;13.90;;
36745;SDS011;22715;52.182;21.206;2023-02-10T10:58:33;27.17;;;12.85;;
36745;SDS011;22715;52.182;21.206;2023-02-10T11:01:00;23.27;;;12.57;;
36745;SDS011;22715;52.182;21.206;2023-02-10T11:03:26;30.23;;;12.88;;
36745;SDS011;22715;52.182;21.206;2023-02-10T11:06:33;28.60;;;14.18;;
36745;SDS011;22715;52.182;21.206;2023-02-10T11:08:44;28.75;;;14.75;;
36745;SDS011;22715;52.182;21.206;2023-02-10T11:11:16;30.17;;;15.35;;
36745;SDS011;22715;52.182;21.206;2023-02-10T11:13:50;26.70;;;13.98;;
36745;SDS011;22715;52.182;21.206;2023-02-10T11:16:18;24.35;;;13.52;;
36745;SDS011;22715;52.182;21.206;2023-02-10T11:18:54;26.35;;;14.68;;
36745;SDS011;22715;52.182;21.206;2023-02-10T11:21:20;32.00;;;14.68;;
36745;SDS011;22715;52.182;21.206;2023-02-10T11:26:30;34.47;;;14.57;;
36745;SDS011;22715;52.182;21.206;2023-02-10T11:28:56;23.85;;;14.52;;
36745;SDS011;22715;52.182;21.206;2023-02-10T11:36:37;25.60;;;14.27;;
36745;SDS011;22715;52.182;21.206;2023-02-10T11:39:06;25.70;;;13.00;;
36745;SDS011;22715;52.182;21.206;2023-02-10T11:41:43;31.08;;;14.85;;
36745;SDS011;22715;52.182;21.206;2023-02-10T11:44:26;26.13;;;15.77;;
36745;SDS011;22715;52.182;21.206;2023-02-10T11:46:56;26.98;;;15.68;;
36745;SDS011;22715;52.182;21.206;2023-02-10T11:49:21;31.90;;;16.42;;
36745;SDS011;22715;52.182;21.206;2023-02-10T11:51:53;23.92;;;15.93;;
36745;SDS011;22715;52.182;21.206;2023-02-10T11:54:19;29.08;;;15.68;;
36745;SDS011;22715;52.182;21.206;2023-02-10T11:56:47;25.90;;;16.45;;
36745;SDS011;22715;52.182;21.206;2023-02-10T11:59:54;34.20;;;16.83;;
36745;SDS011;22715;52.182;21.206;2023-02-10T12:17:50;26.35;;;15.65;;
36745;SDS011;22715;52.182;21.206;2023-02-10T12:20:22;29.75;;;15.35;;
36745;SDS011;22715;52.182;21.206;2023-02-10T12:25:52;22.58;;;13.90;;
36745;SDS011;22715;52.182;21.206;2023-02-10T12:31:16;26.77;;;14.57;;
36745;SDS011;22715;52.182;21.206;2023-02-10T12:39:22;31.80;;;14.75;;
36745;SDS011;22715;52.182;21.206;2023-02-10T12:47:26;27.27;;;16.90;;
36745;SDS011;22715;52.182;21.206;2023-02-10T12:55:44;31.25;;;17.95;;
36745;SDS011;22715;52.182;21.206;2023-02-10T12:58:37;33.25;;;17.67;;
36745;SDS011;22715;52.182;21.206;2023-02-10T13:01:08;31.25;;;17.95;;
36745;SDS011;22715;52.182;21.206;2023-02-10T13:03:37;26.60;;;14.98;;
36745;SDS011;22715;52.182;21.206;2023-02-10T13:08:30;36.45;;;15.05;;
36745;SDS011;22715;52.182;21.206;2023-02-10T13:10:59;33.53;;;17.25;;
36745;SDS011;22715;52.182;21.206;2023-02-10T13:13:29;29.13;;;17.48;;
36745;SDS011;22715;52.182;21.206;2023-02-10T13:15:59;32.10;;;16.58;;
36745;SDS011;22715;52.182;21.206;2023-02-10T13:18:26;24.63;;;15.25;;
36745;SDS011;22715;52.182;21.206;2023-02-10T13:21:06;29.25;;;17.83;;
36745;SDS011;22715;52.182;21.206;2023-02-10T13:23:36;30.13;;;17.10;;
36745;SDS011;22715;52.182;21.206;2023-02-10T13:33:42;21.67;;;16.13;;
36745;SDS011;22715;52.182;21.206;2023-02-10T13:36:14;33.38;;;16.85;;
36745;SDS011;22715;52.182;21.206;2023-02-10T13:38:40;31.27;;;16.33;;
36745;SDS011;22715;52.182;21.206;2023-02-10T13:41:15;31.90;;;16.70;;
36745;SDS011;22715;52.182;21.206;2023-02-10T13:44:14;32.55;;;16.45;;
36745;SDS011;22715;52.182;21.206;2023-02-10T13:46:40;31.70;;;20.30;;
36745;SDS011;22715;52.182;21.206;2023-02-10T13:49:11;29.80;;;17.45;;
36745;SDS011;22715;52.182;21.206;2023-02-10T13:54:51;28.02;;;17.63;;
36745;SDS011;22715;52.182;21.206;2023-02-10T14:06:14;36.20;;;17.75;;
36745;SDS011;22715;52.182;21.206;2023-02-10T14:08:41;34.72;;;19.10;;
36745;SDS011;22715;52.182;21.206;2023-02-10T14:14:00;39.63;;;18.92;;
36745;SDS011;22715;52.182;21.206;2023-02-10T14:19:54;32.38;;;17.13;;
36745;SDS011;22715;52.182;21.206;2023-02-10T14:22:41;38.40;;;17.98;;
36745;SDS011;22715;52.182;21.206;2023-02-10T14:28:35;36.78;;;19.38;;
36745;SDS011;22715;52.182;21.206;2023-02-10T14:31:11;35.15;;;17.40;;
36745;SDS011;22715;52.182;21.206;2023-02-10T14:33:38;32.53;;;16.60;;
36745;SDS011;22715;52.182;21.206;2023-02-10T14:36:07;33.92;;;19.98;;
36745;SDS011;22715;52.182;21.206;2023-02-10T14:41:21;41.85;;;20.67;;
36745;SDS011;22715;52.182;21.206;2023-02-10T14:43:47;41.35;;;21.35;;
36745;SDS011;22715;52.182;21.206;2023-02-10T14:48:42;34.78;;;20.30;;
36745;SDS011;22715;52.182;21.206;2023-02-10T14:51:17;36.78;;;19.17;;
36745;SDS011;22715;52.182;21.206;2023-02-10T14:53:45;38.80;;;20.55;;
36745;SDS011;22715;52.182;21.206;2023-02-10T14:56:29;38.85;;;21.10;;
36745;SDS011;22715;52.182;21.206;2023-02-10T14:58:54;36.47;;;20.15;;
36745;SDS011;22715;52.182;21.206;2023-02-10T15:01:29;39.72;;;21.45;;
36745;SDS011;22715;52.182;21.206;2023-02-10T15:03:55;39.72;;;19.48;;
36745;SDS011;22715;52.182;21.206;2023-02-10T15:06:23;40.08;;;18.73;;
36745;SDS011;22715;52.182;21.206;2023-02-10T15:11:39;31.35;;;18.00;;
36745;SDS011;22715;52.182;21.206;2023-02-10T15:14:26;35.03;;;17.95;;
36745;SDS011;22715;52.182;21.206;2023-02-10T15:16:53;40.53;;;21.67;;
36745;SDS011;22715;52.182;21.206;2023-02-10T15:19:19;41.63;;;22.02;;
36745;SDS011;22715;52.182;21.206;2023-02-10T15:22:28;38.83;;;19.77;;
36745;SDS011;22715;52.182;21.206;2023-02-10T15:24:52;44.10;;;21.10;;
36745;SDS011;22715;52.182;21.206;2023-02-10T15:27:21;37.42;;;19.90;;
36745;SDS011;22715;52.182;21.206;2023-02-10T15:29:48;40.72;;;18.98;;
36745;SDS011;22715;52.182;21.206;2023-02-10T15:32:22;40.05;;;18.95;;
36745;SDS011;22715;52.182;21.206;2023-02-10T15:34:48;32.00;;;19.33;;
36745;SDS011;22715;52.182;21.206;2023-02-10T15:37:19;37.15;;;20.00;;
36745;SDS011;22715;52.182;21.206;2023-02-10T15:40:31;38.75;;;22.08;;
36745;SDS011;22715;52.182;21.206;2023-02-10T15:45:17;41.10;;;19.35;;
36745;SDS011;22715;52.182;21.206;2023-02-10T15:47:47;37.88;;;19.17;;
36745;SDS011;22715;52.182;21.206;2023-02-10T15:50:13;36.22;;;21.02;;
36745;SDS011;22715;52.182;21.206;2023-02-10T15:52:43;33.83;;;19.38;;
36745;SDS011;22715;52.182;21.206;2023-02-10T15:57:35;38.10;;;21.83;;
36745;SDS011;22715;52.182;21.206;2023-02-10T16:00:01;37.30;;;20.48;;
36745;SDS011;22715;52.182;21.206;2023-02-10T16:04:55;40.53;;;22.90;;
36745;SDS011;22715;52.182;21.206;2023-02-10T16:07:22;40.83;;;20.17;;
36745;SDS011;22715;52.182;21.206;2023-02-10T16:09:50;39.92;;;21.98;;
36745;SDS011;22715;52.182;21.206;2023-02-10T16:12:16;43.05;;;20.40;;
36745;SDS011;22715;52.182;21.206;2023-02-10T16:14:55;36.03;;;20.63;;
36745;SDS011;22715;52.182;21.206;2023-02-10T16:17:24;39.55;;;22.50;;
36745;SDS011;22715;52.182;21.206;2023-02-10T16:19:50;41.17;;;21.38;;
36745;SDS011;22715;52.182;21.206;2023-02-10T16:22:16;36.42;;;20.73;;
36745;SDS011;22715;52.182;21.206;2023-02-10T16:24:41;38.75;;;21.95;;
36745;SDS011;22715;52.182;21.206;2023-02-10T16:27:11;42.63;;;22.98;;
36745;SDS011;22715;52.182;21.206;2023-02-10T16:29:37;39.88;;;20.33;;
36745;SDS011;22715;52.182;21.206;2023-02-10T16:32:03;39.03;;;21.80;;
36745;SDS011;22715;52.182;21.206;2023-02-10T16:34:29;40.88;;;21.50;;
36745;SDS011;22715;52.182;21.206;2023-02-10T16:36:58;42.08;;;23.33;;
36745;SDS011;22715;52.182;21.206;2023-02-10T16:39:24;43.90;;;20.80;;
36745;SDS011;22715;52.182;21.206;2023-02-10T16:41:56;35.13;;;20.77;;
36745;SDS011;22715;52.182;21.206;2023-02-10T16:44:25;46.97;;;22.45;;
36745;SDS011;22715;52.182;21.206;2023-02-10T16:46:55;48.78;;;21.85;;
36745;SDS011;22715;52.182;21.206;2023-02-10T16:52:26;44.80;;;24.23;;
36745;SDS011;22715;52.182;21.206;2023-02-10T16:54:58;42.75;;;22.35;;
36745;SDS011;22715;52.182;21.206;2023-02-10T16:57:26;47.55;;;23.63;;
36745;SDS011;22715;52.182;21.206;2023-02-10T16:59:59;43.80;;;22.40;;